Time;durP1;ratioP1;P1;durP2;ratioP2;P2;SDS_P1;SDS_P2;PMS_P1;PMS_P2;Temp;Humidity;BMP_temperature;BMP_pressure;BME280_temperature;BME280_humidity;BME280_pressure;Samples;Min_cycle;Max_cycle;Signal;HPM_P1;HPM_P2
2022/08/22 00:00:15;;;;;;;4.57;1.17;;;;;;;16.87;86.86;101557.63;2055137;28;34009;-71
2022/08/22 00:02:23;;;;;;;5.85;1.30;;;;;;;16.82;86.37;101556.94;2055242;28;20940;-71
2022/08/22 00:03:53;;;;;;;7.07;1.30;;;;;;;16.77;87.33;101557.09;2054399;28;25691;-71
2022/08/22 00:04:58;;;;;;;6.57;1.60;;;;;;;16.72;87.46;101557.25;2054560;28;27641;-72
2022/08/22 00:06:18;;;;;;;5.30;1.58;;;;;;;16.72;87.48;101559.09;2054631;28;24819;-71
2022/08/22 00:07:49;;;;;;;;;;;;;;;16.66;87.88;101559.34;2055154;28;20142;-71
2022/08/22 00:09:07;;;;;;;5.80;1.20;;;;;;;16.61;87.56;101559.50;2049460;28;26487;-71
2022/08/22 00:10:47;;;;;;;8.90;1.60;;;;;;;16.59;87.75;101561.41;2047729;28;28287;-71
2022/08/22 00:12:00;;;;;;;10.63;2.60;;;;;;;16.56;88.09;101556.09;2046640;28;28445;-71
2022/08/22 00:13:15;;;;;;;7.13;1.52;;;;;;;16.57;88.32;101563.28;2038981;29;20051;-71
2022/08/22 00:14:38;;;;;;;8.15;1.48;;;;;;;16.56;88.02;101561.50;2046408;28;30632;-71
2022/08/22 00:15:51;;;;;;;4.00;1.35;;;;;;;16.55;88.52;101563.34;2050796;28;32556;-71
2022/08/22 00:17:12;;;;;;;4.68;1.33;;;;;;;16.57;88.47;101560.56;2054977;28;25103;-71
2022/08/22 00:18:40;;;;;;;3.88;1.25;;;;;;;16.57;88.38;101563.28;2051977;28;26317;-71
2022/08/22 00:19:56;;;;;;;10.02;1.60;;;;;;;16.56;88.35;101556.09;2047848;28;30222;-71
2022/08/22 00:21:17;;;;;;;8.02;1.60;;;;;;;16.57;88.60;101552.47;2055462;28;20074;-69
2022/08/22 00:22:21;;;;;;;6.10;1.00;;;;;;;16.57;88.60;101552.47;2051611;28;27757;-69
2022/08/22 00:23:44;;;;;;;5.97;1.48;;;;;;;16.57;88.73;101557.88;2047226;28;34280;-70
2022/08/22 00:25:06;;;;;;;5.38;1.50;;;;;;;16.54;88.93;101560.69;2047729;28;29520;-69
2022/08/22 00:26:43;;;;;;;4.20;1.00;;;;;;;16.52;89.30;101557.16;2054837;28;33051;-71
2022/08/22 00:28:16;;;;;;;8.23;2.05;;;;;;;16.50;89.25;101561.75;2054921;28;20040;-71
2022/08/22 00:29:33;;;;;;;4.80;1.40;;;;;;;16.50;89.41;101562.63;2047602;28;31478;-71
2022/08/22 00:31:15;;;;;;;9.52;1.60;;;;;;;16.49;89.55;101554.56;2054678;28;29321;-71
2022/08/22 00:32:41;;;;;;;5.80;1.48;;;;;;;16.51;89.61;101560.78;2055002;28;25937;-71
2022/08/22 00:34:21;;;;;;;7.28;1.70;;;;;;;16.48;89.51;101558.22;2055024;28;20118;-71
2022/08/22 00:35:35;;;;;;;5.15;1.30;;;;;;;16.47;89.30;101561.84;2040670;28;35968;-71
2022/08/22 00:37:10;;;;;;;10.30;2.03;;;;;;;16.45;89.23;101556.50;2054694;28;22108;-71
2022/08/22 00:38:31;;;;;;;6.13;1.60;;;;;;;16.45;89.73;101553.81;2054710;28;33032;-71
2022/08/22 00:39:44;;;;;;;7.25;1.23;;;;;;;16.46;89.89;101560.13;2054911;28;30463;-71
2022/08/22 00:41:02;;;;;;;7.32;1.30;;;;;;;16.48;89.90;101555.53;2051313;28;25159;-71
2022/08/22 00:42:54;;;;;;;5.32;1.27;;;;;;;16.49;90.47;101559.97;2047298;28;25595;-71
2022/08/22 00:44:12;;;;;;;10.57;2.00;;;;;;;16.50;90.29;101559.03;2047295;28;25365;-71
2022/08/22 00:45:57;;;;;;;5.47;1.52;;;;;;;16.52;nan;101565.28;2054835;28;38323;-71
2022/08/22 00:47:31;;;;;;;5.70;1.48;;;;;;;16.52;90.17;101554.47;2055050;28;23984;-71
2022/08/22 00:49:22;;;;;;;7.90;1.42;;;;;;;16.53;89.94;101561.66;2054249;28;38462;-72
2022/08/22 00:50:44;;;;;;;6.88;1.83;;;;;;;16.55;90.08;101557.94;2055064;28;23988;-71
2022/08/22 00:51:52;;;;;;;7.18;1.50;;;;;;;16.55;90.42;101557.06;2047804;28;28188;-71
2022/08/22 00:53:39;;;;;;;5.88;1.63;;;;;;;16.54;90.07;101561.56;2047508;28;27189;-71
2022/08/22 00:55:08;;;;;;;6.43;1.23;;;;;;;16.54;89.99;101560.69;2054369;28;24301;-71
2022/08/22 00:58:35;;;;;;;8.18;1.80;;;;;;;16.48;90.18;101556.41;2048604;28;20043;-69
2022/08/22 00:59:52;;;;;;;3.65;1.23;;;;;;;16.48;90.11;101553.69;2054633;28;20874;-69
2022/08/22 01:01:01;;;;;;;8.73;1.95;;;;;;;16.50;90.39;101559.91;2051590;28;28170;-68
2022/08/22 01:02:40;;;;;;;6.28;1.23;;;;;;;16.53;91.39;101553.53;2047086;28;33299;-69
2022/08/22 01:03:47;;;;;;;7.70;1.65;;;;;;;16.53;90.68;101557.13;2047286;28;20048;-68
2022/08/22 01:05:15;;;;;;;10.57;1.92;;;;;;;16.54;91.10;101553.44;2047095;28;26286;-69
2022/08/22 01:06:23;;;;;;;11.35;2.08;;;;;;;16.59;90.89;101551.47;2047445;28;31346;-69
2022/08/22 01:07:49;;;;;;;9.27;2.13;;;;;;;16.57;90.79;101547.06;2046937;28;24538;-68
2022/08/22 01:09:06;;;;;;;4.05;1.23;;;;;;;16.57;90.27;101553.34;2047407;28;24872;-69
2022/08/22 01:10:29;;;;;;;9.40;1.77;;;;;;;16.56;89.88;101551.59;2055143;28;25300;-69
2022/08/22 01:11:55;;;;;;;6.20;1.70;;;;;;;16.53;90.67;101551.72;2050514;28;32393;-69
2022/08/22 01:13:37;;;;;;;7.93;1.60;;;;;;;16.53;90.08;101550.84;2054753;28;32736;-68
2022/08/22 01:15:02;;;;;;;6.45;1.90;;;;;;;16.51;90.06;101556.28;2051893;28;20084;-69
2022/08/22 01:16:26;;;;;;;7.18;2.10;;;;;;;16.52;90.04;101555.34;2056833;28;20035;-68
2022/08/22 01:18:21;;;;;;;8.93;1.70;;;;;;;16.52;89.83;101557.16;2052463;28;20044;-69
2022/08/22 01:19:51;;;;;;;8.88;1.80;;;;;;;16.51;90.50;101558.09;2046575;28;22987;-68
2022/08/22 01:21:08;;;;;;;6.38;1.48;;;;;;;16.49;90.31;101555.47;2039739;29;28830;-69
2022/08/22 01:22:36;;;;;;;5.80;1.00;;;;;;;16.49;89.97;101563.59;2039677;28;25075;-68
2022/08/22 01:24:11;;;;;;;8.55;1.80;;;;;;;16.48;91.08;101556.41;2039142;28;37815;-69
2022/08/22 01:25:41;;;;;;;8.00;1.67;;;;;;;16.48;91.24;101558.22;2047287;28;22704;-69
2022/08/22 01:27:04;;;;;;;6.15;1.65;;;;;;;16.46;90.40;101563.69;2040600;28;37057;-68
2022/08/22 01:28:33;;;;;;;8.48;1.88;;;;;;;16.46;91.54;101555.59;2041751;28;29828;-69
2022/08/22 01:30:01;;;;;;;15.82;2.40;;;;;;;16.50;91.66;101561.75;2040055;28;20083;-70
2022/08/22 01:31:30;;;;;;;8.02;1.70;;;;;;;16.50;91.27;101562.63;2039277;28;37440;-69
2022/08/22 01:33:23;;;;;;;8.50;2.05;;;;;;;16.46;91.10;101560.13;2039505;29;23459;-70
2022/08/22 01:34:52;;;;;;;9.13;1.88;;;;;;;16.46;91.19;101552.88;2037906;29;25864;-69
2022/08/22 01:36:08;;;;;;;6.90;1.27;;;;;;;16.41;91.07;101558.44;2038124;29;36218;-69
2022/08/22 01:38:13;;;;;;;7.18;1.90;;;;;;;16.37;91.21;101566.75;2046851;28;25547;-70
2022/08/22 01:39:48;;;;;;;7.13;1.30;;;;;;;16.30;91.23;101560.66;2039339;29;22539;-69
2022/08/22 01:41:07;;;;;;;7.05;1.45;;;;;;;16.32;92.04;101560.63;2038911;28;29632;-68
2022/08/22 01:43:07;;;;;;;14.55;2.10;;;;;;;16.28;91.47;101567.97;2047146;28;22760;-70
2022/08/22 01:44:37;;;;;;;8.77;1.60;;;;;;;16.29;91.58;101566.13;2040846;29;28014;-69
2022/08/22 01:45:51;;;;;;;;;;;;;;;16.30;91.40;101565.19;2041747;29;20217;-68
2022/08/22 01:47:21;;;;;;;6.13;1.65;;;;;;;16.29;91.03;101569.69;2041039;28;19919;-70
2022/08/22 01:48:44;;;;;;;9.70;2.42;;;;;;;16.28;90.97;101576.06;2042415;28;26677;-69
2022/08/22 01:50:16;;;;;;;6.45;1.73;;;;;;;16.27;91.14;101570.72;2055699;28;26055;-68
2022/08/22 01:51:42;;;;;;;7.43;1.60;;;;;;;16.24;91.00;101566.31;2049403;28;20093;-70
2022/08/22 01:52:50;;;;;;;9.98;1.90;;;;;;;16.23;90.79;101569.94;2048349;28;35415;-70
2022/08/22 01:54:08;;;;;;;7.72;1.40;;;;;;;16.22;91.00;101563.66;2049627;28;20990;-68
2022/08/22 01:55:29;;;;;;;8.00;2.03;;;;;;;16.22;91.23;101569.06;2055374;28;29618;-68
2022/08/22 01:56:44;;;;;;;9.63;1.80;;;;;;;16.21;91.11;101577.22;2053478;28;21373;-68
2022/08/22 01:57:54;;;;;;;8.45;1.83;;;;;;;16.23;91.42;101572.63;2048161;28;24229;-68
2022/08/22 01:59:20;;;;;;;;;;;;;;;16.20;91.00;101576.34;2047721;28;35622;-68
2022/08/22 02:00:25;;;;;;;7.43;1.55;;;;;;;16.20;91.37;101570.03;2048308;28;28206;-68
2022/08/22 02:02:10;;;;;;;6.65;1.63;;;;;;;16.19;91.32;101574.56;2048660;28;20048;-68
2022/08/22 02:03:35;;;;;;;7.00;1.33;;;;;;;16.16;90.71;101577.38;2047798;28;39157;-68
2022/08/22 02:04:57;;;;;;;7.35;2.00;;;;;;;16.15;90.42;101567.53;2055265;28;32067;-68
2022/08/22 02:06:19;;;;;;;8.27;1.40;;;;;;;16.12;90.62;101575.72;2047726;28;20044;-67
2022/08/22 02:07:34;;;;;;;7.55;1.20;;;;;;;16.10;91.14;101568.63;2050359;28;20150;-70
2022/08/22 02:09:37;;;;;;;9.93;1.70;;;;;;;16.07;91.26;101569.59;2052085;28;26317;-69
2022/08/22 02:11:09;;;;;;;8.32;1.58;;;;;;;16.03;90.89;101570.66;2041437;28;20047;-69
2022/08/22 02:12:24;;;;;;;5.30;0.93;;;;;;;16.00;91.03;101568.06;2047931;28;32739;-69
2022/08/22 02:14:12;;;;;;;7.68;1.30;;;;;;;15.98;91.29;101576.22;2056150;28;20125;-69
2022/08/22 02:15:39;;;;;;;6.28;1.20;;;;;;;15.96;91.48;101577.22;2048500;28;25873;-69
2022/08/22 02:16:48;;;;;;;12.35;1.50;;;;;;;15.93;91.45;101575.50;2048832;28;24393;-69
2022/08/22 02:18:02;;;;;;;7.22;1.40;;;;;;;15.91;91.89;101571.97;2048116;28;31965;-69
2022/08/22 02:19:12;;;;;;;6.45;1.20;;;;;;;15.89;92.19;101581.94;2048582;28;20036;-68
2022/08/22 02:20:55;;;;;;;9.68;1.63;;;;;;;15.86;92.19;101570.38;2047613;28;39118;-68
2022/08/22 02:22:31;;;;;;;7.60;1.40;;;;;;;15.83;91.99;101576.78;2047698;28;32321;-68
2022/08/22 02:24:03;;;;;;;4.82;1.05;;;;;;;15.83;93.10;101568.66;2048961;28;30723;-69
2022/08/22 02:25:22;;;;;;;8.55;1.60;;;;;;;15.85;92.65;101572.19;2055338;28;38359;-68
2022/08/22 02:26:48;;;;;;;9.27;1.77;;;;;;;15.86;93.32;101573.06;2053092;28;32614;-69
2022/08/22 02:28:02;;;;;;;9.18;1.80;;;;;;;15.88;93.45;101564.00;2048813;28;20047;-68
2022/08/22 02:29:17;;;;;;;9.02;1.90;;;;;;;15.98;94.47;101564.53;2048447;28;24049;-68
2022/08/22 02:31:10;;;;;;;6.75;1.60;;;;;;;15.95;93.50;101565.53;2055507;28;28707;-67
2022/08/22 02:32:37;;;;;;;5.55;1.77;;;;;;;15.99;93.32;101560.91;2055950;28;21331;-67
2022/08/22 02:33:47;;;;;;;8.45;1.60;;;;;;;15.97;93.13;101558.25;2052571;28;30770;-68
2022/08/22 02:35:09;;;;;;;7.65;1.90;;;;;;;15.98;93.03;101557.31;2054460;28;39835;-68
2022/08/22 02:36:39;;;;;;;12.50;2.00;;;;;;;15.98;93.12;101562.72;2052658;28;38750;-68
2022/08/22 02:37:56;;;;;;;7.93;1.60;;;;;;;15.90;92.99;101556.72;2056109;28;20118;-68
2022/08/22 02:39:42;;;;;;;15.60;2.25;;;;;;;15.86;93.57;101562.28;2050384;28;34821;-68
2022/08/22 02:41:19;;;;;;;7.05;1.73;;;;;;;15.79;93.42;101564.28;2055537;28;25899;-68
2022/08/22 02:42:49;;;;;;;4.65;1.30;;;;;;;15.74;93.83;101560.81;2047748;28;29659;-67
2022/08/22 02:43:56;;;;;;;6.30;1.67;;;;;;;15.69;94.09;101558.31;2048372;28;23091;-68
2022/08/22 02:45:23;;;;;;;10.32;1.65;;;;;;;15.63;94.13;101562.09;2048339;28;22686;-68
2022/08/22 02:46:45;;;;;;;9.75;2.00;;;;;;;15.58;93.81;101568.59;2048582;28;28430;-68
2022/08/22 02:47:52;;;;;;;4.95;1.80;;;;;;;15.55;94.57;101566.00;2048258;28;30757;-69
2022/08/22 02:49:11;;;;;;;7.20;2.00;;;;;;;15.51;94.40;101570.59;2048544;28;20054;-68
2022/08/22 02:50:46;;;;;;;8.00;2.03;;;;;;;15.47;94.63;101574.34;2048199;28;26590;-68
2022/08/22 02:52:08;;;;;;;7.95;2.00;;;;;;;15.42;95.29;101565.53;2048119;28;23715;-68
2022/08/22 02:53:22;;;;;;;6.70;1.73;;;;;;;15.40;95.68;101568.28;2055412;28;25257;-68
2022/08/22 02:54:57;;;;;;;8.25;2.25;;;;;;;15.37;95.51;101562.09;2053105;28;22700;-68
2022/08/22 02:56:09;;;;;;;6.32;1.92;;;;;;;15.33;95.97;101568.53;2048118;28;30520;-69
2022/08/22 02:57:25;;;;;;;6.70;1.90;;;;;;;15.31;95.80;101565.88;2047687;28;29032;-68
2022/08/22 02:58:50;;;;;;;6.47;1.92;;;;;;;15.25;96.09;101558.88;2055540;28;28111;-68
2022/08/22 03:00:20;;;;;;;10.57;2.40;;;;;;;15.23;96.00;101567.94;2050489;28;32588;-70
2022/08/22 03:01:30;;;;;;;8.55;2.22;;;;;;;15.21;96.58;101565.28;2048216;28;25534;-68
2022/08/22 03:02:55;;;;;;;9.70;2.40;;;;;;;15.19;96.33;101566.28;2047361;28;34050;-68
2022/08/22 03:04:21;;;;;;;9.48;2.22;;;;;;;15.18;97.03;101564.50;2055046;28;29331;-68
2022/08/22 03:05:35;;;;;;;6.60;1.60;;;;;;;15.18;96.83;101562.69;2055615;28;27047;-69
2022/08/22 03:06:59;;;;;;;8.55;2.15;;;;;;;15.18;96.85;101567.19;2053969;28;20098;-69
2022/08/22 03:08:29;;;;;;;12.10;2.67;;;;;;;15.18;96.57;101568.09;2055305;28;24056;-68
2022/08/22 03:09:38;;;;;;;5.82;1.90;;;;;;;15.19;96.70;101564.44;2048707;28;21201;-70
2022/08/22 03:10:57;;;;;;;5.88;1.90;;;;;;;15.20;96.64;101563.53;2050880;28;42732;-68
2022/08/22 03:12:31;;;;;;;5.28;1.77;;;;;;;15.22;96.89;101563.50;2055604;28;20286;-69
2022/08/22 03:13:54;;;;;;;12.73;2.40;;;;;;;15.24;96.77;101558.91;2050585;28;41318;-69
2022/08/22 03:15:31;;;;;;;7.22;1.88;;;;;;;15.26;96.79;101565.13;2053487;28;20158;-68
2022/08/22 03:16:49;;;;;;;10.43;2.33;;;;;;;15.32;98.67;101561.34;2048979;28;20040;-68
2022/08/22 03:18:24;;;;;;;7.95;2.17;;;;;;;15.34;97.44;101556.78;2055387;28;24974;-68
2022/08/22 03:19:49;;;;;;;6.70;2.20;;;;;;;15.33;97.29;101557.75;2049976;28;20110;-68
2022/08/22 03:21:32;;;;;;;9.95;2.35;;;;;;;15.34;97.62;101565.75;2054972;28;26917;-68
2022/08/22 03:22:52;;;;;;;5.85;2.13;;;;;;;15.37;97.30;101564.78;2047938;28;21482;-69
2022/08/22 03:24:10;;;;;;;6.28;2.30;;;;;;;15.38;97.08;101567.44;2048879;28;25249;-68
2022/08/22 03:25:18;;;;;;;6.32;1.77;;;;;;;15.41;97.85;101559.22;2055296;28;30056;-68
2022/08/22 03:27:18;;;;;;;10.95;2.42;;;;;;;15.45;98.16;101560.00;2052473;28;34079;-68
2022/08/22 03:29:19;;;;;;;8.90;2.35;;;;;;;15.50;97.82;101562.56;2055336;28;20114;-70
2022/08/22 03:30:37;;;;;;;7.93;2.35;;;;;;;15.50;97.60;101554.47;2045869;28;31193;-68
2022/08/22 03:32:29;;;;;;;9.35;2.80;;;;;;;15.48;97.51;101553.63;2055541;28;26359;-70
2022/08/22 03:33:31;;;;;;;9.85;2.55;;;;;;;15.50;98.54;101549.94;2038469;28;38698;-70
2022/08/22 03:34:35;;;;;;;6.65;2.40;;;;;;;15.46;97.63;101553.69;2047695;28;30252;-69
2022/08/22 03:35:45;;;;;;;7.57;2.30;;;;;;;15.42;97.70;101555.59;2055263;28;40952;-70
2022/08/22 03:37:25;;;;;;;7.03;2.08;;;;;;;15.38;97.58;101553.03;2053648;28;36996;-70
2022/08/22 03:38:33;;;;;;;7.28;2.45;;;;;;;15.33;97.38;101555.03;2054853;28;39412;-69
2022/08/22 03:39:53;;;;;;;6.35;2.08;;;;;;;15.30;97.81;101553.31;2050706;28;31354;-69
2022/08/22 03:41:40;;;;;;;8.07;2.30;;;;;;;15.23;97.83;101549.91;2047593;28;36697;-69
2022/08/22 03:43:31;;;;;;;10.77;2.42;;;;;;;15.22;99.00;101552.69;2047678;28;36626;-69
2022/08/22 03:44:48;;;;;;;9.48;2.55;;;;;;;15.18;98.88;101557.31;2058350;28;35747;-69
2022/08/22 03:45:53;;;;;;;9.75;2.53;;;;;;;15.18;98.55;101551.00;2056676;28;20210;-68
2022/08/22 03:47:55;;;;;;;10.02;2.40;;;;;;;15.21;100.00;101551.78;2055443;28;24391;-69
2022/08/22 03:49:41;;;;;;;9.13;2.60;;;;;;;15.20;99.91;101555.44;2063096;28;24070;-69
2022/08/22 03:51:09;;;;;;;11.10;2.97;;;;;;;15.18;99.58;101557.31;2062676;28;25766;-68
2022/08/22 03:52:30;;;;;;;7.75;2.30;;;;;;;15.17;99.54;101555.53;2055103;28;20043;-68
2022/08/22 03:53:40;;;;;;;7.72;2.42;;;;;;;15.15;99.13;101559.22;2056194;28;20054;-69
2022/08/22 03:54:51;;;;;;;7.22;2.50;;;;;;;15.11;99.04;101555.75;2056491;28;24591;-68
2022/08/22 03:56:49;;;;;;;9.40;2.90;;;;;;;15.10;99.19;101558.47;2055339;28;28938;-68
2022/08/22 03:59:04;;;;;;;9.50;2.33;;;;;;;15.09;99.62;101565.66;2062965;28;21647;-70
2022/08/22 04:01:27;;;;;;;6.18;2.33;;;;;;;15.05;99.88;101567.56;2025138;29;29319;-69
2022/08/22 04:03:10;;;;;;;9.43;2.65;;;;;;;15.04;100.00;101575.75;2022289;29;20156;-68
2022/08/22 04:04:34;;;;;;;10.27;2.45;;;;;;;15.03;99.97;101576.66;2055359;28;34119;-70
2022/08/22 04:06:00;;;;;;;7.72;2.53;;;;;;;15.02;100.00;101582.97;2062990;28;29034;-68
2022/08/22 04:07:08;;;;;;;10.45;3.13;;;;;;;15.04;100.00;101581.13;2062307;28;33941;-68
2022/08/22 04:08:44;;;;;;;7.97;3.05;;;;;;;15.06;100.00;101581.97;2059911;28;30869;-68
2022/08/22 04:10:23;;;;;;;10.80;3.00;;;;;;;15.06;100.00;101580.16;2055370;28;35192;-68
2022/08/22 04:12:14;;;;;;;8.60;2.97;;;;;;;15.15;100.00;101586.19;2055583;28;25860;-69
2022/08/22 04:13:54;;;;;;;;;;;;;;;15.13;100.00;101583.53;2056480;28;23733;-68
2022/08/22 04:15:49;;;;;;;11.85;3.08;;;;;;;15.19;100.00;101580.63;2054868;28;20140;-69
2022/08/22 04:17:28;;;;;;;7.07;3.30;;;;;;;15.18;100.00;101578.88;2018304;28;28143;-69
2022/08/22 04:18:55;;;;;;;10.10;3.35;;;;;;;15.20;99.57;101574.31;2040060;28;20166;-68
2022/08/22 04:20:30;;;;;;;8.77;3.35;;;;;;;15.22;99.95;101574.28;2039371;28;27295;-69
2022/08/22 04:21:43;;;;;;;12.00;3.58;;;;;;;15.22;99.65;101575.16;2039187;28;31043;-68
2022/08/22 04:23:19;;;;;;;10.48;3.58;;;;;;;15.25;99.63;101580.47;2039837;28;25162;-68
2022/08/22 04:25:03;;;;;;;13.60;3.40;;;;;;;15.30;100.00;101576.72;2039646;28;29841;-68
2022/08/22 04:26:35;;;;;;;;;;;;;;;15.31;99.76;101578.47;2040760;29;20036;-67
2022/08/22 04:27:56;;;;;;;12.52;3.33;;;;;;;15.31;99.35;101573.97;2039280;29;30269;-68
2022/08/22 04:29:12;;;;;;;11.25;3.85;;;;;;;15.33;99.33;101576.63;2046505;28;30415;-69
2022/08/22 04:30:35;;;;;;;11.80;3.47;;;;;;;15.37;99.67;101580.97;2049230;28;38572;-69
2022/08/22 04:31:48;;;;;;;9.27;3.70;;;;;;;15.38;99.70;101577.34;2044684;29;26163;-69
2022/08/22 04:33:17;;;;;;;13.68;3.60;;;;;;;15.41;99.12;101586.22;2044436;29;38281;-70
2022/08/22 04:34:36;;;;;;;10.18;3.70;;;;;;;15.44;99.93;101583.41;2040138;28;23205;-69
2022/08/22 04:35:57;;;;;;;13.85;3.55;;;;;;;15.46;99.16;101583.38;2046668;28;35864;-69
2022/08/22 04:37:09;;;;;;;12.50;3.58;;;;;;;15.50;99.06;101585.03;2043753;28;20044;-67
2022/08/22 04:38:32;;;;;;;18.25;3.85;;;;;;;15.53;99.13;101579.53;2042774;28;27609;-69
2022/08/22 04:39:49;;;;;;;13.65;3.45;;;;;;;15.55;98.78;101585.75;2039301;29;20914;-68
2022/08/22 04:41:03;;;;;;;10.57;3.33;;;;;;;15.56;98.54;101579.44;2043982;28;25876;-69
2022/08/22 04:42:17;;;;;;;11.25;3.22;;;;;;;15.57;98.18;101578.50;2039070;28;20949;-68
2022/08/22 04:44:01;;;;;;;9.95;2.72;;;;;;;15.62;98.67;101590.03;2044504;28;21102;-69
2022/08/22 04:45:18;;;;;;;9.98;2.67;;;;;;;15.63;97.88;101586.41;2051466;28;22790;-68
2022/08/22 04:47:00;;;;;;;8.88;2.75;;;;;;;15.66;98.62;101585.41;2054843;28;30013;-68
2022/08/22 04:48:12;;;;;;;8.57;3.10;;;;;;;15.68;97.81;101588.94;2047957;28;20145;-68
2022/08/22 04:49:47;;;;;;;8.63;3.42;;;;;;;15.69;98.16;101584.44;2051759;28;27650;-68
2022/08/22 04:50:56;;;;;;;11.32;3.55;;;;;;;15.74;98.38;101577.97;2040964;28;32984;-68
2022/08/22 04:52:45;;;;;;;12.57;3.28;;;;;;;15.79;98.09;101580.50;2051840;28;20043;-69
2022/08/22 04:53:47;;;;;;;10.55;3.20;;;;;;;15.78;96.98;101579.63;2048475;28;28409;-68
2022/08/22 04:55:25;;;;;;;12.05;3.35;;;;;;;15.81;97.36;101590.31;2047637;28;30277;-69
2022/08/22 04:57:07;;;;;;;12.98;2.92;;;;;;;15.84;97.64;101586.63;2054451;28;37582;-68
2022/08/22 04:58:38;;;;;;;10.13;3.00;;;;;;;15.84;97.05;101584.81;2047608;28;30059;-68
2022/08/22 04:59:41;;;;;;;13.65;2.88;;;;;;;15.87;96.81;101586.53;2048484;28;20404;-68
2022/08/22 05:01:15;;;;;;;9.93;3.33;;;;;;;15.91;97.13;101587.31;2046798;28;23459;-69
2022/08/22 05:02:26;;;;;;;13.10;3.17;;;;;;;15.90;96.32;101583.72;2047179;28;24147;-69
2022/08/22 05:03:32;;;;;;;12.55;3.05;;;;;;;15.92;96.51;101586.38;2047796;28;20940;-70
2022/08/22 05:04:40;;;;;;;11.82;3.20;;;;;;;15.95;96.83;101592.56;2054644;28;33895;-67
2022/08/22 05:05:46;;;;;;;12.27;3.03;;;;;;;15.97;96.52;101582.56;2053449;28;25366;-68
2022/08/22 05:07:07;;;;;;;13.63;2.83;;;;;;;16.03;96.71;101592.28;2046403;28;31607;-68
2022/08/22 05:08:17;;;;;;;17.00;3.70;;;;;;;16.05;96.47;101586.81;2055277;28;24076;-69
2022/08/22 05:09:26;;;;;;;10.13;2.83;;;;;;;16.09;95.82;101588.47;2052423;28;31343;-69
2022/08/22 05:10:41;;;;;;;15.38;3.08;;;;;;;16.12;95.88;101591.06;2049259;28;20118;-70
2022/08/22 05:11:45;;;;;;;11.23;3.28;;;;;;;16.15;95.55;101590.94;2046232;28;31005;-68
2022/08/22 05:12:59;;;;;;;12.35;3.42;;;;;;;16.19;95.28;101581.81;2046496;28;34134;-68
2022/08/22 05:14:14;;;;;;;14.27;2.90;;;;;;;16.23;95.27;101591.56;2054239;28;37913;-67
2022/08/22 05:15:21;;;;;;;11.70;2.63;;;;;;;16.29;95.24;101591.31;2051715;28;30410;-67
2022/08/22 05:16:35;;;;;;;15.43;3.05;;;;;;;16.35;94.79;101596.53;2049667;28;29216;-68
2022/08/22 05:17:39;;;;;;;11.40;3.08;;;;;;;16.41;94.62;101588.16;2047736;28;35165;-68
2022/08/22 05:18:54;;;;;;;9.43;3.20;;;;;;;16.47;94.27;101583.47;2050004;28;28573;-69
2022/08/22 05:20:05;;;;;;;15.35;3.30;;;;;;;16.55;93.55;101600.31;2054541;28;20079;-68
2022/08/22 05:21:11;;;;;;;9.60;2.60;;;;;;;16.61;93.63;101586.56;2055824;28;29209;-69
2022/08/22 05:22:22;;;;;;;9.02;2.10;;;;;;;16.68;93.08;101590.78;2053941;28;36445;-69
2022/08/22 05:23:42;;;;;;;10.98;2.88;;;;;;;16.75;92.41;101592.31;2049925;28;25173;-68
2022/08/22 05:25:04;;;;;;;9.07;2.45;;;;;;;16.86;92.04;101596.47;2053351;28;28418;-68
2022/08/22 05:26:08;;;;;;;13.02;2.60;;;;;;;16.95;91.57;101593.41;2056384;28;20920;-68
2022/08/22 05:27:19;;;;;;;11.85;3.30;;;;;;;17.01;90.93;101590.44;2054485;28;27454;-69
2022/08/22 05:28:56;;;;;;;7.35;2.25;;;;;;;17.13;90.60;101592.66;2048522;28;31310;-68
2022/08/22 05:30:14;;;;;;;8.93;2.75;;;;;;;17.22;89.49;101585.13;2047788;28;29253;-69
2022/08/22 05:31:25;;;;;;;14.70;2.85;;;;;;;17.36;89.26;101599.00;2048701;28;34201;-69
2022/08/22 05:32:38;;;;;;;9.45;2.55;;;;;;;17.46;88.98;101591.34;2055949;28;29721;-68
2022/08/22 05:33:50;;;;;;;9.38;2.10;;;;;;;17.63;88.36;101591.53;2053552;28;27782;-69
2022/08/22 05:34:57;;;;;;;10.63;2.80;;;;;;;17.84;87.19;101588.88;2048099;28;34090;-69
2022/08/22 05:36:12;;;;;;;9.02;2.55;;;;;;;18.23;85.36;101589.00;2048153;28;37479;-69
2022/08/22 05:37:28;;;;;;;9.35;2.38;;;;;;;18.70;82.50;101587.78;2056247;28;25694;-69
2022/08/22 05:38:35;;;;;;;8.05;1.85;;;;;;;19.34;79.82;101585.66;2052709;28;28664;-69
2022/08/22 05:39:45;;;;;;;9.98;2.35;;;;;;;19.87;77.57;101578.50;2050014;28;39698;-69
2022/08/22 05:40:58;;;;;;;;;;;;;;;20.18;74.22;101578.63;2048038;28;32209;-68
2022/08/22 05:42:02;;;;;;;10.20;2.10;;;;;;;20.90;74.21;101592.91;2048226;28;29199;-68
2022/08/22 05:43:08;;;;;;;9.68;2.17;;;;;;;21.39;72.38;101580.16;2048975;28;20911;-69
2022/08/22 05:44:24;;;;;;;9.18;1.95;;;;;;;21.81;66.91;101584.97;2048165;28;21826;-69
2022/08/22 05:45:27;;;;;;;8.65;1.88;;;;;;;22.42;66.69;101583.09;2048772;28;27848;-69
2022/08/22 05:47:02;;;;;;;8.73;1.88;;;;;;;22.87;63.58;101586.59;2055803;28;24114;-69
2022/08/22 05:48:15;;;;;;;8.27;1.73;;;;;;;23.02;62.09;101583.84;2050940;28;35126;-69
2022/08/22 05:49:33;;;;;;;11.43;1.70;;;;;;;22.93;61.91;101579.84;2051551;28;30673;-68
2022/08/22 05:50:43;;;;;;;11.45;1.83;;;;;;;22.99;61.00;101578.59;2047131;28;34129;-70
2022/08/22 05:52:05;;;;;;;11.38;2.20;;;;;;;23.38;63.40;101575.13;2048946;28;20821;-69
2022/08/22 05:53:34;;;;;;;12.57;1.88;;;;;;;23.56;58.80;101586.66;2048332;28;31818;-69
2022/08/22 05:54:54;;;;;;;9.07;1.83;;;;;;;23.71;60.72;101582.00;2055654;28;30600;-70
2022/08/22 05:56:20;;;;;;;6.97;1.67;;;;;;;23.73;57.43;101596.44;2051626;28;28960;-69
2022/08/22 05:57:27;;;;;;;12.55;2.10;;;;;;;23.94;58.52;101585.94;2052676;28;28062;-69
2022/08/22 05:58:45;;;;;;;8.82;1.85;;;;;;;24.01;57.40;101603.69;2054063;28;26170;-69
2022/08/22 06:00:01;;;;;;;8.35;1.77;;;;;;;24.38;58.67;101597.47;2056409;28;20110;-69
2022/08/22 06:01:19;;;;;;;8.43;1.75;;;;;;;24.83;56.15;101597.06;2052391;28;20170;-70
2022/08/22 06:02:43;;;;;;;10.65;1.98;;;;;;;24.17;57.26;101602.59;2048158;28;36629;-70
2022/08/22 06:04:06;;;;;;;8.95;1.50;;;;;;;24.77;56.30;101592.91;2055771;28;26419;-69
2022/08/22 06:05:11;;;;;;;8.88;1.50;;;;;;;24.84;55.92;101596.09;2049863;28;27847;-69
2022/08/22 06:06:17;;;;;;;8.15;1.58;;;;;;;25.00;56.01;101591.22;2050081;28;20091;-70
2022/08/22 06:07:29;;;;;;;8.20;1.63;;;;;;;24.69;55.42;101596.22;2039785;29;20100;-69
2022/08/22 06:08:40;;;;;;;9.00;1.92;;;;;;;24.34;56.51;101599.56;2042210;28;29284;-69
2022/08/22 06:09:45;;;;;;;7.40;1.70;;;;;;;24.08;57.19;101600.50;2048605;28;20051;-68
2022/08/22 06:11:06;;;;;;;9.18;1.73;;;;;;;23.66;58.00;101597.84;2048757;28;20048;-69
2022/08/22 06:12:19;;;;;;;5.82;1.50;;;;;;;23.43;59.73;101597.53;2048668;28;20047;-69
2022/08/22 06:13:52;;;;;;;9.02;1.70;;;;;;;23.08;61.14;101607.19;2047658;28;37687;-69
2022/08/22 06:15:16;;;;;;;8.18;1.90;;;;;;;22.60;61.49;101599.28;2055892;28;20813;-69
2022/08/22 06:16:52;;;;;;;12.63;1.95;;;;;;;22.10;62.78;101602.28;2052631;28;36430;-68
2022/08/22 06:18:04;;;;;;;6.65;1.80;;;;;;;21.63;64.66;101607.88;2048193;28;32722;-69
2022/08/22 06:19:07;;;;;;;8.52;2.08;;;;;;;21.29;65.81;101602.50;2048895;28;24145;-68
2022/08/22 06:20:42;;;;;;;8.13;1.55;;;;;;;20.89;68.21;101604.78;2055749;28;27231;-69
2022/08/22 06:21:49;;;;;;;9.65;1.88;;;;;;;20.67;69.08;101609.63;2051186;28;20059;-68
2022/08/22 06:22:56;;;;;;;10.68;2.20;;;;;;;20.54;68.93;101610.25;2050918;28;35910;-69
2022/08/22 06:24:01;;;;;;;10.10;2.20;;;;;;;20.23;70.93;101615.59;2048009;28;21028;-68
2022/08/22 06:25:17;;;;;;;9.15;1.92;;;;;;;20.13;71.06;101610.63;2049010;28;29675;-69
2022/08/22 06:26:20;;;;;;;10.48;2.10;;;;;;;20.08;72.38;101618.16;2053296;28;29013;-69
2022/08/22 06:27:27;;;;;;;10.18;2.20;;;;;;;19.90;73.00;101619.09;2055605;28;31720;-69
2022/08/22 06:28:40;;;;;;;9.48;1.85;;;;;;;19.70;73.17;101612.81;2053742;28;32654;-69
2022/08/22 06:30:01;;;;;;;16.88;2.03;;;;;;;19.71;73.92;101614.56;2051359;28;22226;-69